sensor_id;sensor_type;location;lat;lon;timestamp;pressure;altitude;pressure_sealevel;temperature;humidity
31082;BME280;17737;52.586;13.284;2023-11-19T00:00:22;101143.22;;;4.46;100.00
31082;BME280;17737;52.586;13.284;2023-11-19T00:02:50;101130.75;;;4.47;100.00
31082;BME280;17737;52.586;13.284;2023-11-19T00:05:20;101116.69;;;4.45;100.00
31082;BME280;17737;52.586;13.284;2023-11-19T00:07:48;101108.53;;;4.46;100.00
31082;BME280;17737;52.586;13.284;2023-11-19T00:10:16;101103.81;;;4.50;100.00
31082;BME280;17737;52.586;13.284;2023-11-19T00:12:48;101094.63;;;4.54;100.00
31082;BME280;17737;52.586;13.284;2023-11-19T00:15:17;101089.63;;;4.60;100.00
31082;BME280;17737;52.586;13.284;2023-11-19T00:17:47;101093.91;;;4.63;100.00
31082;BME280;17737;52.586;13.284;2023-11-19T00:20:17;101083.69;;;4.57;100.00
31082;BME280;17737;52.586;13.284;2023-11-19T00:22:48;101074.22;;;4.64;100.00
31082;BME280;17737;52.586;13.284;2023-11-19T00:25:17;101062.81;;;4.62;100.00
31082;BME280;17737;52.586;13.284;2023-11-19T00:27:46;101066.47;;;4.61;100.00
31082;BME280;17737;52.586;13.284;2023-11-19T00:30:15;101066.22;;;4.64;100.00
31082;BME280;17737;52.586;13.284;2023-11-19T00:32:43;101055.41;;;4.65;100.00
31082;BME280;17737;52.586;13.284;2023-11-19T00:35:12;101052.63;;;4.67;100.00
31082;BME280;17737;52.586;13.284;2023-11-19T00:37:41;101050.44;;;4.72;100.00
31082;BME280;17737;52.586;13.284;2023-11-19T00:40:13;101040.13;;;4.67;100.00
31082;BME280;17737;52.586;13.284;2023-11-19T00:42:43;101028.25;;;4.71;100.00
31082;BME280;17737;52.586;13.284;2023-11-19T00:45:11;101029.81;;;4.74;100.00
31082;BME280;17737;52.586;13.284;2023-11-19T00:47:40;101007.72;;;4.72;100.00
31082;BME280;17737;52.586;13.284;2023-11-19T00:50:09;101000.44;;;4.74;100.00
31082;BME280;17737;52.586;13.284;2023-11-19T00:52:38;100996.81;;;4.75;100.00
31082;BME280;17737;52.586;13.284;2023-11-19T00:55:06;100992.91;;;4.79;100.00
31082;BME280;17737;52.586;13.284;2023-11-19T00:57:37;100983.94;;;4.80;100.00
31082;BME280;17737;52.586;13.284;2023-11-19T01:00:06;100972.31;;;4.70;100.00
31082;BME280;17737;52.586;13.284;2023-11-19T01:02:46;100955.69;;;4.77;100.00
31082;BME280;17737;52.586;13.284;2023-11-19T01:05:18;100952.47;;;4.83;100.00
31082;BME280;17737;52.586;13.284;2023-11-19T01:07:49;100955.28;;;4.82;100.00
31082;BME280;17737;52.586;13.284;2023-11-19T01:10:20;100935.72;;;4.93;100.00
31082;BME280;17737;52.586;13.284;2023-11-19T01:12:49;100925.44;;;4.88;100.00
31082;BME280;17737;52.586;13.284;2023-11-19T01:15:18;100909.00;;;4.93;100.00
31082;BME280;17737;52.586;13.284;2023-11-19T01:17:47;100907.19;;;4.93;100.00
31082;BME280;17737;52.586;13.284;2023-11-19T01:20:18;100909.59;;;4.96;100.00
31082;BME280;17737;52.586;13.284;2023-11-19T01:22:47;100903.03;;;5.00;100.00
31082;BME280;17737;52.586;13.284;2023-11-19T01:25:16;100891.84;;;5.06;100.00
31082;BME280;17737;52.586;13.284;2023-11-19T01:27:44;100897.31;;;5.05;100.00
31082;BME280;17737;52.586;13.284;2023-11-19T01:30:14;100887.75;;;5.02;100.00
31082;BME280;17737;52.586;13.284;2023-11-19T01:32:42;100887.63;;;5.04;100.00
31082;BME280;17737;52.586;13.284;2023-11-19T01:35:10;100884.72;;;5.16;100.00
31082;BME280;17737;52.586;13.284;2023-11-19T01:37:39;100875.31;;;5.12;100.00
31082;BME280;17737;52.586;13.284;2023-11-19T01:40:07;100850.22;;;5.04;100.00
31082;BME280;17737;52.586;13.284;2023-11-19T01:42:38;100839.59;;;5.13;100.00
31082;BME280;17737;52.586;13.284;2023-11-19T01:45:07;100833.16;;;5.16;100.00
31082;BME280;17737;52.586;13.284;2023-11-19T01:47:38;100825.16;;;5.16;100.00
31082;BME280;17737;52.586;13.284;2023-11-19T01:50:07;100820.03;;;5.13;100.00
31082;BME280;17737;52.586;13.284;2023-11-19T01:52:36;100803.72;;;5.06;100.00
31082;BME280;17737;52.586;13.284;2023-11-19T01:55:06;100810.34;;;5.12;100.00
31082;BME280;17737;52.586;13.284;2023-11-19T01:57:36;100804.69;;;5.05;100.00
31082;BME280;17737;52.586;13.284;2023-11-19T02:00:09;100798.06;;;5.00;100.00
31082;BME280;17737;52.586;13.284;2023-11-19T02:02:40;100798.47;;;4.95;100.00
31082;BME280;17737;52.586;13.284;2023-11-19T02:05:11;100789.91;;;5.01;100.00
31082;BME280;17737;52.586;13.284;2023-11-19T02:07:40;100776.41;;;5.03;100.00
31082;BME280;17737;52.586;13.284;2023-11-19T02:10:08;100766.59;;;5.03;100.00
31082;BME280;17737;52.586;13.284;2023-11-19T02:12:41;100741.69;;;4.93;100.00
31082;BME280;17737;52.586;13.284;2023-11-19T02:15:11;100735.34;;;4.94;100.00
31082;BME280;17737;52.586;13.284;2023-11-19T02:17:41;100725.78;;;4.92;100.00
31082;BME280;17737;52.586;13.284;2023-11-19T02:20:10;100709.09;;;4.99;100.00
31082;BME280;17737;52.586;13.284;2023-11-19T02:22:41;100713.59;;;4.99;100.00
31082;BME280;17737;52.586;13.284;2023-11-19T02:25:19;100729.25;;;4.82;100.00
31082;BME280;17737;52.586;13.284;2023-11-19T02:27:53;100719.88;;;4.88;100.00
31082;BME280;17737;52.586;13.284;2023-11-19T02:30:25;100710.72;;;4.90;100.00
31082;BME280;17737;52.586;13.284;2023-11-19T02:32:54;100702.88;;;4.89;100.00
31082;BME280;17737;52.586;13.284;2023-11-19T02:35:25;100701.63;;;4.93;100.00
31082;BME280;17737;52.586;13.284;2023-11-19T02:37:54;100696.00;;;4.96;100.00
31082;BME280;17737;52.586;13.284;2023-11-19T02:40:22;100673.69;;;4.97;100.00
31082;BME280;17737;52.586;13.284;2023-11-19T02:42:53;100668.34;;;4.97;100.00
31082;BME280;17737;52.586;13.284;2023-11-19T02:45:22;100675.66;;;4.95;100.00
31082;BME280;17737;52.586;13.284;2023-11-19T02:47:52;100663.56;;;5.01;100.00
31082;BME280;17737;52.586;13.284;2023-11-19T02:50:21;100661.22;;;5.07;100.00
31082;BME280;17737;52.586;13.284;2023-11-19T02:52:54;100656.47;;;5.11;100.00
31082;BME280;17737;52.586;13.284;2023-11-19T02:55:24;100632.00;;;5.06;100.00
31082;BME280;17737;52.586;13.284;2023-11-19T02:57:56;100624.41;;;5.11;100.00
31082;BME280;17737;52.586;13.284;2023-11-19T03:00:26;100624.41;;;5.11;100.00
31082;BME280;17737;52.586;13.284;2023-11-19T03:03:00;100613.00;;;5.09;100.00
31082;BME280;17737;52.586;13.284;2023-11-19T03:05:36;100621.03;;;5.09;100.00
31082;BME280;17737;52.586;13.284;2023-11-19T03:08:07;100625.94;;;5.13;100.00
31082;BME280;17737;52.586;13.284;2023-11-19T03:10:35;100634.81;;;5.14;100.00
31082;BME280;17737;52.586;13.284;2023-11-19T03:13:04;100638.34;;;5.14;100.00
31082;BME280;17737;52.586;13.284;2023-11-19T03:15:34;100633.09;;;5.13;100.00
31082;BME280;17737;52.586;13.284;2023-11-19T03:18:02;100640.16;;;5.14;100.00
31082;BME280;17737;52.586;13.284;2023-11-19T03:20:30;100635.66;;;5.14;100.00
31082;BME280;17737;52.586;13.284;2023-11-19T03:22:59;100633.66;;;4.97;100.00
31082;BME280;17737;52.586;13.284;2023-11-19T03:25:28;100628.16;;;4.99;100.00
31082;BME280;17737;52.586;13.284;2023-11-19T03:28:00;100613.09;;;4.98;100.00
31082;BME280;17737;52.586;13.284;2023-11-19T03:30:31;100609.72;;;4.86;100.00
31082;BME280;17737;52.586;13.284;2023-11-19T03:33:00;100597.75;;;4.80;100.00
31082;BME280;17737;52.586;13.284;2023-11-19T03:35:29;100581.97;;;4.68;100.00
31082;BME280;17737;52.586;13.284;2023-11-19T03:37:59;100592.22;;;4.63;100.00
31082;BME280;17737;52.586;13.284;2023-11-19T03:40:28;100588.13;;;4.59;100.00
31082;BME280;17737;52.586;13.284;2023-11-19T03:42:56;100584.16;;;4.53;100.00
31082;BME280;17737;52.586;13.284;2023-11-19T03:45:24;100570.53;;;4.56;100.00
31082;BME280;17737;52.586;13.284;2023-11-19T03:47:54;100563.81;;;4.52;100.00
31082;BME280;17737;52.586;13.284;2023-11-19T03:50:22;100557.16;;;4.47;100.00
31082;BME280;17737;52.586;13.284;2023-11-19T03:52:50;100554.78;;;4.44;100.00
31082;BME280;17737;52.586;13.284;2023-11-19T03:55:21;100534.00;;;4.47;100.00
31082;BME280;17737;52.586;13.284;2023-11-19T03:57:49;100538.06;;;4.42;100.00
31082;BME280;17737;52.586;13.284;2023-11-19T04:00:18;100519.78;;;4.37;100.00
31082;BME280;17737;52.586;13.284;2023-11-19T04:02:47;100514.72;;;4.34;100.00
31082;BME280;17737;52.586;13.284;2023-11-19T04:05:17;100515.84;;;4.32;100.00
31082;BME280;17737;52.586;13.284;2023-11-19T04:07:46;100508.69;;;4.32;100.00
31082;BME280;17737;52.586;13.284;2023-11-19T04:10:14;100504.31;;;4.31;100.00
31082;BME280;17737;52.586;13.284;2023-11-19T04:12:43;100495.25;;;6.15;100.00
31082;BME280;17737;52.586;13.284;2023-11-19T04:15:12;100483.38;;;5.71;100.00
31082;BME280;17737;52.586;13.284;2023-11-19T04:17:40;100482.72;;;5.60;100.00
31082;BME280;17737;52.586;13.284;2023-11-19T04:20:09;100478.84;;;5.81;100.00
31082;BME280;17737;52.586;13.284;2023-11-19T04:22:42;100476.91;;;5.83;100.00
31082;BME280;17737;52.586;13.284;2023-11-19T04:25:10;100472.53;;;5.82;100.00
31082;BME280;17737;52.586;13.284;2023-11-19T04:27:38;100473.66;;;5.70;100.00
31082;BME280;17737;52.586;13.284;2023-11-19T04:30:07;100456.22;;;5.76;100.00
31082;BME280;17737;52.586;13.284;2023-11-19T04:32:37;100455.91;;;5.79;100.00
31082;BME280;17737;52.586;13.284;2023-11-19T04:35:07;100466.09;;;5.75;100.00
31082;BME280;17737;52.586;13.284;2023-11-19T04:37:36;100473.69;;;5.61;100.00
31082;BME280;17737;52.586;13.284;2023-11-19T04:40:07;100472.59;;;5.44;100.00
31082;BME280;17737;52.586;13.284;2023-11-19T04:42:36;100458.81;;;5.49;100.00
31082;BME280;17737;52.586;13.284;2023-11-19T04:45:07;100443.88;;;5.56;100.00
31082;BME280;17737;52.586;13.284;2023-11-19T04:47:37;100415.97;;;10.48;100.00
31082;BME280;17737;52.586;13.284;2023-11-19T04:50:06;100403.44;;;10.25;100.00
31082;BME280;17737;52.586;13.284;2023-11-19T04:52:38;100398.06;;;10.25;100.00
31082;BME280;17737;52.586;13.284;2023-11-19T04:55:10;100677.13;;;9.76;100.00
31082;BME280;17737;52.586;13.284;2023-11-19T04:57:41;100545.38;;;9.10;100.00
31082;BME280;17737;52.586;13.284;2023-11-19T05:00:10;100580.53;;;10.69;100.00
31082;BME280;17737;52.586;13.284;2023-11-19T05:02:43;100239.41;;;9.46;100.00
31082;BME280;17737;52.586;13.284;2023-11-19T05:05:11;100396.66;;;8.70;100.00
31082;BME280;17737;52.586;13.284;2023-11-19T05:07:40;100389.00;;;8.33;100.00
31082;BME280;17737;52.586;13.284;2023-11-19T05:10:12;100372.44;;;8.45;100.00
31082;BME280;17737;52.586;13.284;2023-11-19T05:12:41;100361.88;;;8.44;100.00
31082;BME280;17737;52.586;13.284;2023-11-19T05:15:09;100352.09;;;8.27;100.00
31082;BME280;17737;52.586;13.284;2023-11-19T05:17:38;100350.69;;;8.23;100.00
31082;BME280;17737;52.586;13.284;2023-11-19T05:20:07;100361.56;;;8.13;100.00
31082;BME280;17737;52.586;13.284;2023-11-19T05:22:40;100346.56;;;8.28;100.00
31082;BME280;17737;52.586;13.284;2023-11-19T05:25:09;100347.03;;;7.90;100.00
31082;BME280;17737;52.586;13.284;2023-11-19T05:27:39;100341.13;;;7.79;100.00
31082;BME280;17737;52.586;13.284;2023-11-19T05:30:07;100335.25;;;7.75;100.00
31082;BME280;17737;52.586;13.284;2023-11-19T05:32:37;100319.41;;;7.98;100.00
31082;BME280;17737;52.586;13.284;2023-11-19T05:35:07;100305.13;;;7.89;100.00
31082;BME280;17737;52.586;13.284;2023-11-19T05:37:36;100303.78;;;7.85;100.00
31082;BME280;17737;52.586;13.284;2023-11-19T05:40:07;100287.41;;;8.04;100.00
31082;BME280;17737;52.586;13.284;2023-11-19T05:42:43;100279.81;;;8.33;100.00
31082;BME280;17737;52.586;13.284;2023-11-19T05:45:11;100261.34;;;9.11;100.00
31082;BME280;17737;52.586;13.284;2023-11-19T05:47:40;100259.72;;;8.04;100.00
31082;BME280;17737;52.586;13.284;2023-11-19T05:50:10;100263.78;;;8.00;100.00
31082;BME280;17737;52.586;13.284;2023-11-19T05:52:38;100264.47;;;8.10;100.00
31082;BME280;17737;52.586;13.284;2023-11-19T05:55:07;100253.13;;;8.48;100.00
31082;BME280;17737;52.586;13.284;2023-11-19T05:57:36;100251.69;;;8.04;100.00
31082;BME280;17737;52.586;13.284;2023-11-19T06:00:10;100251.50;;;8.05;100.00
31082;BME280;17737;52.586;13.284;2023-11-19T06:02:42;100258.66;;;8.30;100.00
31082;BME280;17737;52.586;13.284;2023-11-19T06:05:10;100247.16;;;8.04;100.00
31082;BME280;17737;52.586;13.284;2023-11-19T06:07:39;100244.44;;;8.46;100.00
31082;BME280;17737;52.586;13.284;2023-11-19T06:10:08;100243.63;;;7.96;100.00
31082;BME280;17737;52.586;13.284;2023-11-19T06:12:37;100243.28;;;7.91;100.00
31082;BME280;17737;52.586;13.284;2023-11-19T06:15:09;100230.53;;;7.85;100.00
31082;BME280;17737;52.586;13.284;2023-11-19T06:17:38;100229.78;;;8.24;100.00
31082;BME280;17737;52.586;13.284;2023-11-19T06:20:07;100226.22;;;7.58;100.00
31082;BME280;17737;52.586;13.284;2023-11-19T06:22:38;100230.03;;;7.81;100.00
31082;BME280;17737;52.586;13.284;2023-11-19T06:25:07;100227.97;;;7.75;100.00
31082;BME280;17737;52.586;13.284;2023-11-19T06:27:35;100216.25;;;7.76;100.00
31082;BME280;17737;52.586;13.284;2023-11-19T06:30:04;100187.84;;;7.58;100.00
31082;BME280;17737;52.586;13.284;2023-11-19T06:32:35;100184.88;;;7.61;100.00
31082;BME280;17737;52.586;13.284;2023-11-19T06:35:03;100209.53;;;7.64;100.00
31082;BME280;17737;52.586;13.284;2023-11-19T06:37:32;100207.13;;;7.53;100.00
31082;BME280;17737;52.586;13.284;2023-11-19T06:40:00;100199.44;;;7.66;100.00
31082;BME280;17737;52.586;13.284;2023-11-19T06:42:29;100206.69;;;7.74;100.00
31082;BME280;17737;52.586;13.284;2023-11-19T06:44:57;100216.03;;;7.62;100.00
31082;BME280;17737;52.586;13.284;2023-11-19T06:47:26;100198.47;;;7.67;100.00
31082;BME280;17737;52.586;13.284;2023-11-19T06:49:56;100187.22;;;10.24;100.00
31082;BME280;17737;52.586;13.284;2023-11-19T06:52:25;100184.13;;;8.81;100.00
31082;BME280;17737;52.586;13.284;2023-11-19T06:54:53;100183.50;;;8.63;100.00
31082;BME280;17737;52.586;13.284;2023-11-19T06:57:34;100179.81;;;8.56;100.00
31082;BME280;17737;52.586;13.284;2023-11-19T07:00:02;100181.16;;;8.35;100.00
31082;BME280;17737;52.586;13.284;2023-11-19T07:02:32;100179.13;;;8.54;100.00
31082;BME280;17737;52.586;13.284;2023-11-19T07:05:02;100176.13;;;8.48;100.00
31082;BME280;17737;52.586;13.284;2023-11-19T07:07:32;100188.34;;;8.67;100.00
31082;BME280;17737;52.586;13.284;2023-11-19T07:10:00;100187.53;;;8.59;100.00
31082;BME280;17737;52.586;13.284;2023-11-19T07:12:28;100180.00;;;8.46;100.00
31082;BME280;17737;52.586;13.284;2023-11-19T07:14:56;100184.19;;;8.40;100.00
31082;BME280;17737;52.586;13.284;2023-11-19T07:17:24;100181.13;;;8.27;100.00
31082;BME280;17737;52.586;13.284;2023-11-19T07:19:54;100184.13;;;8.16;100.00
31082;BME280;17737;52.586;13.284;2023-11-19T07:22:27;100182.59;;;7.90;100.00
31082;BME280;17737;52.586;13.284;2023-11-19T07:24:56;100193.00;;;7.93;100.00
31082;BME280;17737;52.586;13.284;2023-11-19T07:27:25;100190.66;;;8.06;100.00
31082;BME280;17737;52.586;13.284;2023-11-19T07:29:57;100190.81;;;8.12;100.00
31082;BME280;17737;52.586;13.284;2023-11-19T07:32:28;100184.13;;;8.16;100.00
31082;BME280;17737;52.586;13.284;2023-11-19T07:34:56;100185.88;;;8.25;100.00
31082;BME280;17737;52.586;13.284;2023-11-19T07:37:26;100194.69;;;8.18;100.00
31082;BME280;17737;52.586;13.284;2023-11-19T07:39:54;100186.03;;;8.32;100.00
31082;BME280;17737;52.586;13.284;2023-11-19T07:42:22;100177.25;;;8.14;100.00
31082;BME280;17737;52.586;13.284;2023-11-19T07:44:50;100184.09;;;8.00;100.00
31082;BME280;17737;52.586;13.284;2023-11-19T07:47:21;100184.84;;;8.42;100.00
31082;BME280;17737;52.586;13.284;2023-11-19T07:49:50;100183.66;;;8.45;100.00
31082;BME280;17737;52.586;13.284;2023-11-19T07:52:18;100174.94;;;8.35;100.00
31082;BME280;17737;52.586;13.284;2023-11-19T07:54:49;100189.88;;;8.45;100.00
31082;BME280;17737;52.586;13.284;2023-11-19T07:57:17;100174.59;;;8.54;100.00
31082;BME280;17737;52.586;13.284;2023-11-19T07:59:46;100179.28;;;8.36;100.00
31082;BME280;17737;52.586;13.284;2023-11-19T08:02:14;100183.34;;;8.40;100.00
31082;BME280;17737;52.586;13.284;2023-11-19T08:04:45;100189.22;;;8.43;100.00
31082;BME280;17737;52.586;13.284;2023-11-19T08:07:18;100179.47;;;8.59;100.00
31082;BME280;17737;52.586;13.284;2023-11-19T08:09:51;100177.44;;;8.44;100.00
31082;BME280;17737;52.586;13.284;2023-11-19T08:12:19;100174.44;;;8.72;100.00
31082;BME280;17737;52.586;13.284;2023-11-19T08:14:51;100166.38;;;8.31;100.00
31082;BME280;17737;52.586;13.284;2023-11-19T08:17:25;100170.75;;;8.24;100.00
31082;BME280;17737;52.586;13.284;2023-11-19T08:19:53;100168.22;;;8.47;100.00
31082;BME280;17737;52.586;13.284;2023-11-19T08:22:21;100160.50;;;8.60;100.00
31082;BME280;17737;52.586;13.284;2023-11-19T08:24:51;100163.19;;;8.68;100.00
31082;BME280;17737;52.586;13.284;2023-11-19T08:27:19;100157.09;;;8.90;100.00
31082;BME280;17737;52.586;13.284;2023-11-19T08:29:53;100166.34;;;8.80;100.00
31082;BME280;17737;52.586;13.284;2023-11-19T08:32:23;100170.69;;;8.97;100.00
31082;BME280;17737;52.586;13.284;2023-11-19T08:34:52;100138.41;;;9.05;100.00
31082;BME280;17737;52.586;13.284;2023-11-19T08:37:20;100143.69;;;8.74;100.00
31082;BME280;17737;52.586;13.284;2023-11-19T08:39:51;100145.53;;;8.74;100.00
31082;BME280;17737;52.586;13.284;2023-11-19T08:42:19;100152.38;;;9.00;100.00
31082;BME280;17737;52.586;13.284;2023-11-19T08:44:49;100144.44;;;9.07;100.00
31082;BME280;17737;52.586;13.284;2023-11-19T08:47:20;100144.69;;;9.28;100.00
31082;BME280;17737;52.586;13.284;2023-11-19T08:49:50;100128.78;;;9.49;100.00
31082;BME280;17737;52.586;13.284;2023-11-19T08:52:22;100150.56;;;8.85;100.00
31082;BME280;17737;52.586;13.284;2023-11-19T08:54:51;100133.13;;;9.27;100.00
31082;BME280;17737;52.586;13.284;2023-11-19T08:57:19;100137.78;;;9.33;100.00
31082;BME280;17737;52.586;13.284;2023-11-19T08:59:48;100127.09;;;9.56;100.00
31082;BME280;17737;52.586;13.284;2023-11-19T09:02:16;100134.09;;;9.34;100.00
31082;BME280;17737;52.586;13.284;2023-11-19T09:04:45;100149.78;;;9.15;100.00
31082;BME280;17737;52.586;13.284;2023-11-19T09:07:15;100143.06;;;11.14;100.00
31082;BME280;17737;52.586;13.284;2023-11-19T09:09:43;100155.28;;;10.58;100.00
31082;BME280;17737;52.586;13.284;2023-11-19T09:12:13;100168.00;;;10.27;100.00
31082;BME280;17737;52.586;13.284;2023-11-19T09:14:41;100159.03;;;10.35;100.00
31082;BME280;17737;52.586;13.284;2023-11-19T09:17:09;100176.84;;;10.13;100.00
31082;BME280;17737;52.586;13.284;2023-11-19T09:19:37;100167.38;;;10.77;100.00
31082;BME280;17737;52.586;13.284;2023-11-19T09:22:06;100149.88;;;10.58;100.00
31082;BME280;17737;52.586;13.284;2023-11-19T09:24:34;100156.84;;;10.53;100.00
31082;BME280;17737;52.586;13.284;2023-11-19T09:27:02;100157.22;;;10.50;100.00
31082;BME280;17737;52.586;13.284;2023-11-19T09:29:32;100150.31;;;10.47;100.00
31082;BME280;17737;52.586;13.284;2023-11-19T09:32:00;100142.31;;;11.06;100.00
31082;BME280;17737;52.586;13.284;2023-11-19T09:34:31;100140.19;;;10.35;100.00
31082;BME280;17737;52.586;13.284;2023-11-19T09:36:59;100142.06;;;10.49;100.00
31082;BME280;17737;52.586;13.284;2023-11-19T09:39:28;100147.78;;;10.68;100.00
31082;BME280;17737;52.586;13.284;2023-11-19T09:41:56;100137.50;;;11.01;100.00
31082;BME280;17737;52.586;13.284;2023-11-19T09:44:25;100132.53;;;10.90;100.00
31082;BME280;17737;52.586;13.284;2023-11-19T09:46:58;100134.59;;;11.03;100.00
31082;BME280;17737;52.586;13.284;2023-11-19T09:49:27;100130.31;;;10.94;100.00
31082;BME280;17737;52.586;13.284;2023-11-19T09:51:59;100124.84;;;11.16;100.00
31082;BME280;17737;52.586;13.284;2023-11-19T09:54:27;100116.00;;;11.08;100.00
31082;BME280;17737;52.586;13.284;2023-11-19T09:56:57;100118.72;;;11.08;100.00
31082;BME280;17737;52.586;13.284;2023-11-19T09:59:29;100121.38;;;10.93;100.00
31082;BME280;17737;52.586;13.284;2023-11-19T10:01:59;100123.00;;;11.17;100.00
31082;BME280;17737;52.586;13.284;2023-11-19T10:04:30;100125.28;;;11.05;100.00
31082;BME280;17737;52.586;13.284;2023-11-19T10:07:00;100125.00;;;11.29;100.00
31082;BME280;17737;52.586;13.284;2023-11-19T10:09:29;100128.09;;;11.26;100.00
31082;BME280;17737;52.586;13.284;2023-11-19T10:11:59;100121.09;;;11.17;100.00
31082;BME280;17737;52.586;13.284;2023-11-19T10:14:28;100129.34;;;11.45;100.00
31082;BME280;17737;52.586;13.284;2023-11-19T10:17:02;100121.56;;;11.21;100.00
31082;BME280;17737;52.586;13.284;2023-11-19T10:19:31;100121.41;;;11.08;100.00
31082;BME280;17737;52.586;13.284;2023-11-19T10:22:03;100128.19;;;11.18;100.00
31082;BME280;17737;52.586;13.284;2023-11-19T10:24:33;100124.06;;;11.22;100.00
31082;BME280;17737;52.586;13.284;2023-11-19T10:27:07;100121.66;;;11.27;100.00
31082;BME280;17737;52.586;13.284;2023-11-19T10:29:38;100118.50;;;11.38;100.00
31082;BME280;17737;52.586;13.284;2023-11-19T10:32:08;100104.69;;;11.48;100.00
31082;BME280;17737;52.586;13.284;2023-11-19T10:34:52;100097.63;;;11.47;100.00
31082;BME280;17737;52.586;13.284;2023-11-19T10:37:31;100089.28;;;11.42;100.00
31082;BME280;17737;52.586;13.284;2023-11-19T10:40:02;100087.19;;;11.58;100.00
31082;BME280;17737;52.586;13.284;2023-11-19T10:42:32;100085.22;;;11.67;100.00
31082;BME280;17737;52.586;13.284;2023-11-19T10:45:00;100092.91;;;11.84;100.00
31082;BME280;17737;52.586;13.284;2023-11-19T10:47:29;100089.69;;;11.95;100.00
31082;BME280;17737;52.586;13.284;2023-11-19T10:50:05;100102.63;;;12.00;100.00
31082;BME280;17737;52.586;13.284;2023-11-19T10:52:33;100098.38;;;11.91;100.00
31082;BME280;17737;52.586;13.284;2023-11-19T10:55:04;100090.63;;;12.09;100.00
31082;BME280;17737;52.586;13.284;2023-11-19T10:57:43;100091.13;;;12.19;100.00
31082;BME280;17737;52.586;13.284;2023-11-19T11:00:18;100098.19;;;12.41;100.00
31082;BME280;17737;52.586;13.284;2023-11-19T11:02:54;100099.13;;;12.55;100.00
31082;BME280;17737;52.586;13.284;2023-11-19T11:05:26;100095.94;;;12.45;100.00
31082;BME280;17737;52.586;13.284;2023-11-19T11:07:55;100094.34;;;12.57;100.00
31082;BME280;17737;52.586;13.284;2023-11-19T11:10:25;100084.69;;;12.69;100.00
31082;BME280;17737;52.586;13.284;2023-11-19T11:12:53;100089.63;;;12.65;100.00
31082;BME280;17737;52.586;13.284;2023-11-19T11:15:27;100078.81;;;12.65;100.00
31082;BME280;17737;52.586;13.284;2023-11-19T11:17:58;100076.25;;;12.85;100.00
31082;BME280;17737;52.586;13.284;2023-11-19T11:20:29;100076.06;;;12.86;100.00
31082;BME280;17737;52.586;13.284;2023-11-19T11:23:25;100089.81;;;13.26;100.00
31082;BME280;17737;52.586;13.284;2023-11-19T11:26:25;100082.13;;;13.29;100.00
31082;BME280;17737;52.586;13.284;2023-11-19T11:29:13;100079.31;;;13.09;100.00
31082;BME280;17737;52.586;13.284;2023-11-19T11:31:56;100077.16;;;13.33;100.00
31082;BME280;17737;52.586;13.284;2023-11-19T11:34:53;100077.75;;;13.28;100.00
31082;BME280;17737;52.586;13.284;2023-11-19T11:37:32;100069.75;;;13.07;100.00
31082;BME280;17737;52.586;13.284;2023-11-19T11:40:03;100074.38;;;13.19;100.00
31082;BME280;17737;52.586;13.284;2023-11-19T11:42:37;100083.00;;;13.36;100.00
31082;BME280;17737;52.586;13.284;2023-11-19T11:45:07;100079.34;;;13.57;100.00
31082;BME280;17737;52.586;13.284;2023-11-19T11:48:09;100072.63;;;13.40;100.00
31082;BME280;17737;52.586;13.284;2023-11-19T11:50:51;100080.88;;;13.32;100.00
31082;BME280;17737;52.586;13.284;2023-11-19T11:53:23;100076.50;;;13.24;100.00
31082;BME280;17737;52.586;13.284;2023-11-19T11:55:55;100072.38;;;13.35;100.00
31082;BME280;17737;52.586;13.284;2023-11-19T11:58:32;100067.31;;;13.18;100.00
31082;BME280;17737;52.586;13.284;2023-11-19T12:01:04;100071.13;;;13.31;100.00
31082;BME280;17737;52.586;13.284;2023-11-19T12:03:37;100072.63;;;13.40;100.00
31082;BME280;17737;52.586;13.284;2023-11-19T12:06:08;100078.19;;;13.32;100.00
31082;BME280;17737;52.586;13.284;2023-11-19T12:08:36;100079.44;;;13.29;100.00
31082;BME280;17737;52.586;13.284;2023-11-19T12:11:10;100078.16;;;13.25;100.00
31082;BME280;17737;52.586;13.284;2023-11-19T12:13:53;100086.22;;;13.12;100.00
31082;BME280;17737;52.586;13.284;2023-11-19T12:16:29;100080.06;;;13.31;100.00
31082;BME280;17737;52.586;13.284;2023-11-19T12:19:02;100074.16;;;13.14;100.00
31082;BME280;17737;52.586;13.284;2023-11-19T12:21:33;100074.31;;;13.06;100.00
31082;BME280;17737;52.586;13.284;2023-11-19T12:24:05;100075.09;;;13.35;100.00
31082;BME280;17737;52.586;13.284;2023-11-19T12:26:36;100078.03;;;13.40;100.00
31082;BME280;17737;52.586;13.284;2023-11-19T12:29:06;100078.13;;;13.18;100.00
31082;BME280;17737;52.586;13.284;2023-11-19T12:31:35;100073.47;;;13.06;100.00
31082;BME280;17737;52.586;13.284;2023-11-19T12:34:10;100073.56;;;13.19;100.00
31082;BME280;17737;52.586;13.284;2023-11-19T12:36:42;100075.38;;;13.05;100.00
31082;BME280;17737;52.586;13.284;2023-11-19T12:39:10;100083.69;;;12.76;100.00
31082;BME280;17737;52.586;13.284;2023-11-19T12:41:51;100078.31;;;12.83;100.00
31082;BME280;17737;52.586;13.284;2023-11-19T12:44:21;100094.09;;;12.79;100.00
31082;BME280;17737;52.586;13.284;2023-11-19T12:47:03;100093.56;;;12.90;100.00
31082;BME280;17737;52.586;13.284;2023-11-19T12:49:33;100093.47;;;12.77;100.00
31082;BME280;17737;52.586;13.284;2023-11-19T12:52:11;100096.41;;;12.82;100.00
31082;BME280;17737;52.586;13.284;2023-11-19T12:54:40;100094.84;;;12.67;100.00